Time;durP1;ratioP1;P1;durP2;ratioP2;P2;SDS_P1;SDS_P2;PMS_P1;PMS_P2;Temp;Humidity;BMP_temperature;BMP_pressure;BME280_temperature;BME280_humidity;BME280_pressure;Samples;Min_cycle;Max_cycle;Signal;HPM_P1;HPM_P2
2023/09/04 00:01:03;;;;;;;;;7.40;7.40;;;;;14.61;88.40;100244.41;6305214;20;2731534;-52
2023/09/04 00:03:33;;;;;;;;;10.80;9.00;;;;;14.74;87.89;100240.81;6332972;20;2766959;-50
2023/09/04 00:06:01;;;;;;;;;12.00;10.00;;;;;14.83;88.00;100242.88;6278035;20;2786048;-51
2023/09/04 00:08:29;;;;;;;;;9.00;9.00;;;;;14.67;88.20;100243.09;6309786;20;2742166;-53
2023/09/04 00:10:57;;;;;;;;;6.50;6.50;;;;;14.87;87.90;100238.97;6281103;20;2741376;-53
2023/09/04 00:13:26;;;;;;;;;8.00;8.00;;;;;14.97;87.63;100242.75;6300535;20;2034723;-53
2023/09/04 00:15:56;;;;;;;;;9.00;9.00;;;;;14.89;87.12;100245.16;6283739;20;2752445;-55
2023/09/04 00:18:26;;;;;;;;;13.00;10.00;;;;;14.83;87.77;100245.59;6302681;20;2784712;-51
2023/09/04 00:20:54;;;;;;;;;9.00;9.00;;;;;14.54;87.93;100245.78;6291830;20;2743510;-54
2023/09/04 00:23:22;;;;;;;;;9.00;7.50;;;;;14.61;88.27;100244.41;6280666;20;2755587;-50
2023/09/04 00:25:51;;;;;;;;;9.67;9.67;;;;;14.93;87.35;100239.44;6282501;20;2777388;-51
2023/09/04 00:28:21;;;;;;;;;11.00;8.20;;;;;14.95;86.60;100247.41;6338500;20;2771123;-51
2023/09/04 00:30:49;;;;;;;;;10.50;8.00;;;;;15.21;85.68;100255.50;6286705;20;2773211;-48
2023/09/04 00:33:18;;;;;;;;;11.00;9.33;;;;;15.27;85.09;100249.66;6281692;20;2776414;-52
2023/09/04 00:35:46;;;;;;;;;9.50;8.00;;;;;15.14;85.36;100252.41;6318402;20;2767033;-53
2023/09/04 00:38:14;;;;;;;;;11.00;8.00;;;;;15.20;85.45;100253.78;6285043;20;2773239;-54
2023/09/04 00:40:42;;;;;;;;;10.33;10.33;;;;;15.34;85.31;100249.09;6283954;20;3515937;-53
2023/09/04 00:43:12;;;;;;;;;8.20;8.20;;;;;15.15;85.44;100248.72;6337343;20;2757704;-51
2023/09/04 00:45:43;;;;;;;;;8.00;8.00;;;;;14.90;86.44;100238.75;6282888;20;2752467;-54
2023/09/04 00:48:13;;;;;;;;;10.33;9.00;;;;;15.19;85.69;100243.94;6278234;20;2774252;-54
2023/09/04 00:50:44;;;;;;;;;11.50;9.00;;;;;15.03;85.92;100245.03;6319201;20;2773301;-50
2023/09/04 00:53:13;;;;;;;;;10.00;9.00;;;;;14.92;86.44;100236.81;6277931;20;2773198;-51
2023/09/04 00:55:45;;;;;;;;;7.29;6.86;;;;;15.13;85.67;100248.81;6360181;20;3446162;-52
2023/09/04 00:58:14;;;;;;;;;10.00;9.00;;;;;15.09;85.42;100243.75;6307225;20;2769064;-50
2023/09/04 01:00:44;;;;;;;;;11.33;8.33;;;;;14.70;86.89;100235.63;6312700;20;2770080;-50
2023/09/04 01:03:13;;;;;;;;;16.00;10.00;;;;;14.88;86.40;100238.03;6315176;20;2796321;-56
2023/09/04 01:05:41;;;;;;;;;12.50;9.00;;;;;14.82;86.29;100231.19;6288546;20;2769033;-54
2023/09/04 01:08:12;;;;;;;;;10.00;9.00;;;;;14.77;86.15;100235.19;6281450;20;2777372;-54
2023/09/04 01:11:23;;;;;;;;;9.33;9.33;;;;;14.72;86.06;100232.84;6312818;20;2773203;-50
2023/09/04 01:13:54;;;;;;;;;9.00;9.00;;;;;14.62;86.59;100229.91;6316695;20;2756625;-50
2023/09/04 01:16:24;;;;;;;;;9.60;9.00;;;;;14.80;86.09;100237.72;6309022;20;2749360;-53
2023/09/04 01:18:53;;;;;;;;;9.33;8.33;;;;;14.76;86.06;100236.19;6309416;20;2755578;-53
2023/09/04 01:21:21;;;;;;;;;8.00;8.00;;;;;14.68;86.28;100239.41;6320754;20;2746168;-51
2023/09/04 01:23:50;;;;;;;;;14.33;9.67;;;;;14.52;87.10;100233.31;6279669;20;3502363;-50
2023/09/04 01:26:38;;;;;;;;;10.00;10.00;;;;;14.43;87.35;100234.81;6313326;20;2781634;-54
2023/09/04 01:29:27;;;;;;;;;10.67;9.00;;;;;14.25;87.67;100234.25;6307392;20;2777541;-55
2023/09/04 01:32:18;;;;;;;;;11.33;10.33;;;;;14.13;87.92;100230.53;6311761;20;2781649;-49
2023/09/04 01:34:51;;;;;;;;;12.00;11.67;;;;;14.35;87.71;100239.88;6309137;20;2788908;-50
2023/09/04 01:37:22;;;;;;;;;12.00;10.00;;;;;14.54;86.94;100237.69;6309833;20;3524244;-52
2023/09/04 01:39:50;;;;;;;;;11.00;9.50;;;;;14.35;87.21;100231.75;6312156;20;2781541;-50
2023/09/04 01:42:19;;;;;;;;;13.33;13.00;;;;;14.53;86.21;100235.94;6279786;20;3537759;-55
2023/09/04 01:44:48;;;;;;;;;15.00;14.00;;;;;14.64;85.49;100237.88;6310243;20;3523179;-51
2023/09/04 01:47:15;;;;;;;;;11.50;11.50;;;;;14.32;86.47;100249.03;6283026;20;2792144;-55
2023/09/04 01:49:44;;;;;;;;;10.67;10.33;;;;;13.83;88.23;100241.56;6278581;20;3506597;-52
2023/09/04 01:52:12;;;;;;;;;9.50;9.50;;;;;14.21;87.96;100240.81;6311168;20;2760884;-51
2023/09/04 01:54:40;;;;;;;;;13.00;11.00;;;;;14.24;86.97;100233.38;6285152;20;2787847;-51
2023/09/04 01:57:08;;;;;;;;;11.00;11.00;;;;;14.32;86.38;100238.22;6285216;20;2794049;-53
2023/09/04 01:59:36;;;;;;;;;9.50;9.50;;;;;14.43;86.44;100240.22;6275572;20;2773376;-54
2023/09/04 02:02:04;;;;;;;;;16.50;11.50;;;;;14.23;86.37;100245.13;6283594;20;2800280;-51
2023/09/04 02:04:34;;;;;;;;;14.67;14.33;;;;;14.10;87.01;100238.84;6277124;20;3527345;-50
2023/09/04 02:07:03;;;;;;;;;12.00;12.00;;;;;14.05;87.35;100246.38;6312141;20;3514047;-56
2023/09/04 02:09:31;;;;;;;;;12.00;10.50;;;;;13.99;87.33;100241.41;6313405;20;2794004;-55
2023/09/04 02:11:59;;;;;;;;;13.33;11.00;;;;;14.32;86.83;100248.19;6277093;20;2794137;-53
2023/09/04 02:14:28;;;;;;;;;13.50;12.50;;;;;14.15;86.60;100250.19;6313707;20;2792005;-54
2023/09/04 02:16:55;;;;;;;;;12.50;12.50;;;;;14.27;86.56;100249.38;6281820;20;2787253;-55
2023/09/04 02:19:24;;;;;;;;;12.67;11.33;;;;;14.35;86.18;100250.66;6277051;20;3508705;-52
2023/09/04 02:21:53;;;;;;;;;12.33;12.33;;;;;14.31;85.86;100259.97;6310042;20;3520062;-55
2023/09/04 02:24:21;;;;;;;;;16.67;12.00;;;;;14.21;85.80;100260.56;6307891;20;3538943;-53
2023/09/04 02:26:50;;;;;;;;;12.67;12.33;;;;;14.13;86.34;100254.81;6311777;20;3524313;-52
2023/09/04 02:29:18;;;;;;;;;12.00;12.00;;;;;14.34;85.69;100257.91;6306304;20;3531661;-56
2023/09/04 02:31:46;;;;;;;;;14.50;13.00;;;;;14.41;85.13;100258.38;6307813;20;2800330;-52
2023/09/04 02:34:14;;;;;;;;;16.00;13.00;;;;;14.52;84.86;100263.91;6278733;20;2808738;-55
2023/09/04 02:36:43;;;;;;;;;13.00;13.00;;;;;14.62;84.22;100267.75;6280257;20;3535781;-51
2023/09/04 02:39:11;;;;;;;;;14.00;12.00;;;;;14.61;84.15;100276.81;6279345;20;2794195;-55
2023/09/04 02:41:39;;;;;;;;;13.00;12.00;;;;;14.77;83.79;100275.75;6278286;20;2804934;-50
2023/09/04 02:44:07;;;;;;;;;14.33;13.67;;;;;14.79;83.76;100279.22;6278753;20;3524303;-54
2023/09/04 02:46:35;;;;;;;;;12.00;12.00;;;;;14.66;83.91;100273.78;6279982;20;2500441;-55
2023/09/04 02:49:03;;;;;;;;;15.00;12.50;;;;;14.63;84.02;100272.16;6277458;20;2792081;-51
2023/09/04 02:51:32;;;;;;;;;14.00;14.00;;;;;14.40;85.28;100264.72;6275825;20;3530467;-51
2023/09/04 02:54:01;;;;;;;;;14.00;12.67;;;;;14.10;86.47;100260.44;6306906;20;3552316;-52
2023/09/04 02:56:29;;;;;;;;;12.33;12.33;;;;;14.08;86.43;100267.78;6278536;20;3521121;-54
2023/09/04 02:58:58;;;;;;;;;15.00;13.67;;;;;14.25;86.83;100269.34;6274748;20;3519137;-49
2023/09/04 03:01:27;;;;;;;;;15.33;13.33;;;;;14.36;85.57;100271.34;6279507;20;3528566;-52
2023/09/04 03:03:56;;;;;;;;;13.00;13.00;;;;;14.45;85.15;100273.38;6274496;20;3533681;-53
2023/09/04 03:06:24;;;;;;;;;12.00;12.00;;;;;14.54;84.64;100259.28;6309281;20;3519009;-56
2023/09/04 03:08:52;;;;;;;;;13.00;13.00;;;;;14.64;83.83;100268.50;6310531;20;2810819;-51
2023/09/04 03:11:21;;;;;;;;;11.00;11.00;;;;;14.75;83.45;100266.91;6275039;20;3520667;-51
2023/09/04 03:13:50;;;;;;;;;14.00;14.00;;;;;14.78;82.93;100272.09;6306404;20;3516292;-51
2023/09/04 03:16:18;;;;;;;;;13.00;13.00;;;;;14.62;83.03;100266.88;6311035;20;3547182;-50
2023/09/04 03:18:47;;;;;;;;;11.33;10.67;;;;;14.78;83.01;100266.69;6274037;20;3513824;-50
2023/09/04 03:21:16;;;;;;;;;11.00;11.00;;;;;14.65;82.92;100272.94;6310622;20;3513813;-52
2023/09/04 03:23:47;;;;;;;;;13.33;12.33;;;;;14.62;83.39;100277.69;6274819;20;3539848;-52
2023/09/04 03:26:15;;;;;;;;;14.50;13.00;;;;;14.36;84.32;100269.50;6279871;20;2800322;-52
2023/09/04 03:28:43;;;;;;;;;14.50;13.50;;;;;14.40;84.81;100267.44;6277361;20;2803505;-50
2023/09/04 03:31:15;;;;;;;;;13.00;11.00;;;;;14.26;84.67;100271.06;6282379;20;2805546;-54
2023/09/04 03:33:43;;;;;;;;;14.50;13.00;;;;;14.16;84.54;100262.72;6280893;20;2813832;-50
2023/09/04 03:36:12;;;;;;;;;11.67;11.67;;;;;14.38;84.11;100272.09;6277479;20;3518010;-52
2023/09/04 03:38:40;;;;;;;;;12.33;12.33;;;;;14.14;84.89;100269.19;6307419;20;3521192;-52
2023/09/04 03:41:08;;;;;;;;;13.00;13.00;;;;;14.45;83.14;100276.94;6280483;20;2801395;-52
2023/09/04 03:43:37;;;;;;;;;13.00;13.00;;;;;14.57;82.57;100269.03;6274541;20;3520081;-51
2023/09/04 03:46:12;;;;;;;;;11.67;11.67;;;;;14.57;82.59;100274.44;6308900;20;3538813;-52
2023/09/04 03:48:41;;;;;;;;;13.67;11.33;;;;;14.74;82.04;100273.25;6304369;20;3514840;-50
2023/09/04 03:51:10;;;;;;;;;12.00;12.00;;;;;14.73;82.25;100267.00;6308120;20;3532568;-51
2023/09/04 03:53:39;;;;;;;;;14.00;12.00;;;;;14.79;81.83;100271.09;6273024;20;3513858;-50
2023/09/04 03:56:09;;;;;;;;;13.00;10.67;;;;;14.74;82.12;100274.13;6307762;20;3520070;-54
2023/09/04 03:58:38;;;;;;;;;15.00;13.00;;;;;14.80;81.90;100273.72;6271544;20;3532677;-50
2023/09/04 04:01:06;;;;;;;;;10.67;10.67;;;;;14.78;82.15;100280.19;6276894;20;3514928;-53
2023/09/04 04:03:35;;;;;;;;;11.67;11.67;;;;;14.84;81.94;100277.91;6273237;20;3518050;-53
2023/09/04 04:06:14;;;;;;;;;15.00;15.00;;;;;14.83;82.11;100283.44;6307522;20;3533779;-49
2023/09/04 04:08:45;;;;;;;;;10.67;10.67;;;;;14.81;81.96;100278.13;6272244;20;3519045;-51
2023/09/04 04:11:13;;;;;;;;;14.67;12.00;;;;;14.89;81.77;100285.72;6305705;20;3516980;-49
2023/09/04 04:13:42;;;;;;;;;10.00;10.00;;;;;14.85;81.74;100290.47;6272521;20;3513887;-52
2023/09/04 04:16:11;;;;;;;;;12.00;12.00;;;;;14.85;81.64;100276.06;6307258;20;3522143;-53
2023/09/04 04:18:40;;;;;;;;;11.00;11.00;;;;;15.01;81.31;100289.38;6305292;20;3508639;-52
2023/09/04 04:21:09;;;;;;;;;12.00;12.00;;;;;15.05;81.06;100286.34;6307523;20;3516969;-51
2023/09/04 04:23:36;;;;;;;;;11.00;11.00;;;;;15.04;81.03;100289.19;6275365;20;2500421;-48
2023/09/04 04:26:05;;;;;;;;;8.67;8.67;;;;;15.21;80.38;100285.28;6276794;20;3459663;-51
2023/09/04 04:28:34;;;;;;;;;12.00;10.00;;;;;15.24;80.13;100287.75;6303074;20;3512882;-52
2023/09/04 04:31:03;;;;;;;;;11.00;11.00;;;;;15.00;80.54;100293.94;6307503;20;3520073;-51
2023/09/04 04:33:31;;;;;;;;;15.33;12.00;;;;;15.21;80.73;100294.25;6304691;20;3513903;-49
2023/09/04 04:36:03;;;;;;;;;11.00;11.00;;;;;15.21;80.50;100301.50;6305406;20;3404472;-56
2023/09/04 04:38:32;;;;;;;;;11.00;11.00;;;;;15.28;80.14;100303.66;6302412;20;3524263;-55
2023/09/04 04:41:00;;;;;;;;;10.00;10.00;;;;;15.31;80.49;100310.69;6313646;20;2785763;-51
2023/09/04 04:43:27;;;;;;;;;9.00;9.00;;;;;15.47;79.80;100314.03;6283553;20;2753212;-55
2023/09/04 04:45:56;;;;;;;;;11.33;10.33;;;;;15.45;79.99;100318.69;6273509;20;2791994;-52
2023/09/04 04:48:24;;;;;;;;;11.00;10.50;;;;;15.59;79.68;100323.97;6307437;20;2788803;-52
2023/09/04 04:50:53;;;;;;;;;10.67;10.00;;;;;15.27;81.41;100318.19;6275497;20;3522218;-51
2023/09/04 04:53:23;;;;;;;;;12.00;10.00;;;;;15.59;80.15;100323.13;6278893;20;2782803;-48
2023/09/04 04:55:53;;;;;;;;;8.60;8.00;;;;;15.62;79.87;100324.75;6303989;20;2756550;-52
2023/09/04 04:58:22;;;;;;;;;11.67;10.00;;;;;15.72;80.24;100323.13;6272711;20;3510808;-55
2023/09/04 05:00:50;;;;;;;;;9.00;9.00;;;;;16.72;76.75;100329.19;6307904;20;2749341;-50
2023/09/04 05:03:18;;;;;;;;;8.00;8.00;;;;;16.18;77.72;100326.00;6284222;20;2742004;-49
2023/09/04 05:05:47;;;;;;;;;12.67;11.00;;;;;16.22;78.41;100316.69;6281596;20;3518076;-52
2023/09/04 05:08:16;;;;;;;;;9.67;8.67;;;;;16.18;78.29;100320.59;6308689;20;2748335;-55
2023/09/04 05:10:43;;;;;;;;;9.50;9.50;;;;;16.35;77.76;100322.03;6316625;20;2772159;-52
2023/09/04 05:13:12;;;;;;;;;12.00;10.50;;;;;16.52;77.46;100323.47;6284575;20;2786812;-50
2023/09/04 05:15:40;;;;;;;;;12.00;9.67;;;;;16.56;77.05;100324.09;6282032;20;2783765;-54
2023/09/04 05:18:10;;;;;;;;;9.40;8.00;;;;;16.70;76.47;100329.31;6337735;20;2763832;-52
2023/09/04 05:20:39;;;;;;;;;9.00;9.00;;;;;16.81;76.46;100336.66;6280657;20;3463834;-55
2023/09/04 05:23:07;;;;;;;;;8.50;8.50;;;;;17.18;75.62;100340.09;6313707;20;2732573;-52
2023/09/04 05:25:35;;;;;;;;;8.67;8.00;;;;;17.72;73.81;100336.69;6282819;20;2745046;-52
2023/09/04 05:28:04;;;;;;;;;9.00;9.00;;;;;17.38;74.40;100333.09;6308816;20;2745244;-50
2023/09/04 05:30:33;;;;;;;;;9.67;9.67;;;;;17.27;74.76;100343.91;6309534;20;2782787;-53
2023/09/04 05:33:01;;;;;;;;;9.00;9.00;;;;;17.36;74.82;100339.63;6314312;20;2756653;-53
2023/09/04 05:35:30;;;;;;;;;10.00;10.00;;;;;17.45;74.57;100339.72;6280895;20;3514856;-56
2023/09/04 05:37:58;;;;;;;;;10.00;10.00;;;;;17.59;74.03;100346.81;6310100;20;2784751;-51
2023/09/04 05:40:26;;;;;;;;;8.00;8.00;;;;;17.68;73.75;100354.19;6310864;20;2736756;-53
2023/09/04 05:42:59;;;;;;;;;9.60;8.20;;;;;18.14;72.54;100358.63;6304623;20;2766998;-51
2023/09/04 05:45:27;;;;;;;;;8.00;8.00;;;;;18.02;72.32;100342.47;6268582;20;2741947;-52
2023/09/04 05:47:55;;;;;;;;;9.00;7.67;;;;;18.22;71.68;100349.84;6281003;20;2737860;-52
2023/09/04 05:50:25;;;;;;;;;7.80;7.80;;;;;18.14;71.67;100353.19;6339124;20;2733655;-54
2023/09/04 05:52:56;;;;;;;;;10.33;7.83;;;;;18.49;70.19;100360.28;6360948;20;1798379;-52
2023/09/04 05:55:25;;;;;;;;;7.67;7.00;;;;;18.82;69.59;100364.72;6310257;20;2738828;-48
2023/09/04 05:57:55;;;;;;;;;7.40;7.40;;;;;19.05;68.63;100365.47;6337180;20;2748160;-50
2023/09/04 06:00:24;;;;;;;;;8.60;7.00;;;;;19.04;68.23;100361.03;6335789;20;2730514;-53
2023/09/04 06:02:56;;;;;;;;;7.00;6.00;;;;;19.32;67.51;100368.66;6335651;20;2738810;-56
2023/09/04 06:05:26;;;;;;;;;10.00;6.00;;;;;20.20;64.30;100373.53;6333663;20;2753407;-55
2023/09/04 06:07:56;;;;;;;;;5.67;5.00;;;;;21.10;60.27;100372.47;6278780;20;2733694;-52
2023/09/04 06:10:24;;;;;;;;;6.67;6.67;;;;;21.01;60.05;100373.34;6320483;20;2739984;-54
2023/09/04 06:12:55;;;;;;;;;6.00;6.00;;;;;21.10;59.85;100375.22;6334597;20;2735803;-54
2023/09/04 06:15:24;;;;;;;;;6.60;6.60;;;;;21.46;57.62;100376.34;6334495;20;2744056;-54
2023/09/04 06:17:54;;;;;;;;;6.00;6.00;;;;;21.21;58.99;100372.31;6337573;20;2737790;-51
2023/09/04 06:20:23;;;;;;;;;6.20;6.20;;;;;22.21;55.05;100375.47;6305724;20;2731565;-54
2023/09/04 06:22:53;;;;;;;;;4.60;4.60;;;;;21.34;58.94;100379.34;6336387;20;2738858;-50
2023/09/04 06:25:21;;;;;;;;;5.00;5.00;;;;;22.05;57.38;100384.31;6311430;20;2730527;-56
2023/09/04 06:27:51;;;;;;;;;5.60;5.60;;;;;22.97;53.85;100386.91;6336912;20;2744120;-58
2023/09/04 06:30:21;;;;;;;;;6.20;5.00;;;;;24.44;51.73;100391.59;6334568;20;2744109;-59
2023/09/04 06:32:50;;;;;;;;;5.00;5.00;;;;;24.26;51.39;100381.59;6302687;20;2738893;-60
2023/09/04 06:35:20;;;;;;;;;3.00;3.00;;;;;22.97;53.16;100386.06;6334486;20;2750345;-59
2023/09/04 06:37:50;;;;;;;;;5.20;5.20;;;;;23.84;51.72;100378.81;6306415;20;2738400;-59
2023/09/04 06:40:20;;;;;;;;;5.20;4.00;;;;;22.94;52.82;100380.88;6339857;20;2744221;-59
2023/09/04 06:42:53;;;;;;;;;6.00;4.20;;;;;22.07;53.73;100388.63;6304075;20;2737956;-61
2023/09/04 06:45:22;;;;;;;;;5.00;5.00;;;;;23.55;52.96;100388.22;6336730;20;2744085;-60
2023/09/04 06:47:52;;;;;;;;;5.00;5.00;;;;;23.16;51.92;100391.34;6307385;20;2746202;-61
2023/09/04 06:50:21;;;;;;;;;5.00;5.00;;;;;26.69;44.85;100400.97;6283764;20;2748283;-58
2023/09/04 06:52:50;;;;;;;;;5.67;5.33;;;;;28.56;41.43;100405.72;6314765;20;2737017;-59
2023/09/04 06:55:19;;;;;;;;;4.33;4.33;;;;;27.94;41.44;100417.19;6314266;20;2742998;-60
2023/09/04 06:57:48;;;;;;;;;5.33;5.33;;;;;28.16;40.55;100407.94;6313507;20;2746167;-62
2023/09/04 07:00:17;;;;;;;;;6.00;4.00;;;;;27.91;41.86;100412.03;6312036;20;2732732;-63
2023/09/04 07:02:47;;;;;;;;;4.80;3.40;;;;;28.64;39.38;100413.88;6336516;20;2748193;-62
2023/09/04 07:05:17;;;;;;;;;3.33;3.33;;;;;28.39;39.50;100412.50;6277432;20;2742999;-60
2023/09/04 07:07:47;;;;;;;;;4.00;4.00;;;;;28.53;40.33;100428.22;6335801;20;2744029;-61
2023/09/04 07:10:16;;;;;;;;;6.00;6.00;;;;;28.44;40.09;100423.88;6285131;20;2744185;-61
2023/09/04 07:12:45;;;;;;;;;3.00;3.00;;;;;29.03;38.13;100423.69;6338238;20;2733616;-61
2023/09/04 07:15:16;;;;;;;;;4.60;3.20;;;;;29.73;37.08;100426.72;6338541;20;2739953;-60
2023/09/04 07:17:45;;;;;;;;;5.00;4.00;;;;;28.52;37.52;100429.28;6283412;20;2747171;-61
2023/09/04 07:20:14;;;;;;;;;5.00;4.67;;;;;27.28;39.64;100425.22;6315483;20;2744051;-61
2023/09/04 07:22:43;;;;;;;;;4.33;4.33;;;;;26.00;42.37;100428.28;6313334;20;2738837;-59
2023/09/04 07:25:13;;;;;;;;;3.00;3.00;;;;;27.25;40.95;100428.34;6334601;20;2744030;-60
2023/09/04 07:27:42;;;;;;;;;6.20;5.20;;;;;24.13;46.29;100411.38;6304772;20;2743018;-59
2023/09/04 07:30:12;;;;;;;;;3.60;3.60;;;;;24.01;47.33;100412.69;6305618;20;2748219;-61
2023/09/04 07:32:41;;;;;;;;;6.00;6.00;;;;;23.50;49.02;100420.72;6277071;20;2748277;-60
2023/09/04 07:35:11;;;;;;;;;5.00;5.00;;;;;23.91;48.03;100425.66;6334570;20;2736778;-61
2023/09/04 07:37:40;;;;;;;;;3.00;3.00;;;;;23.35;48.94;100425.91;6313714;20;2743008;-58
2023/09/04 07:40:10;;;;;;;;;5.00;5.00;;;;;22.89;48.86;100422.41;6336402;20;2744077;-59
2023/09/04 07:42:42;;;;;;;;;4.60;4.60;;;;;23.45;49.01;100423.94;6304991;20;2736786;-53
2023/09/04 07:45:11;;;;;;;;;5.00;5.00;;;;;23.09;49.10;100423.16;6335427;20;2744072;-52
2023/09/04 07:47:41;;;;;;;;;5.00;5.00;;;;;23.14;49.15;100408.97;6307100;20;2742077;-52
2023/09/04 07:50:11;;;;;;;;;5.80;5.80;;;;;23.52;48.48;100413.22;6338873;20;2748264;-54
2023/09/04 07:52:40;;;;;;;;;6.80;4.40;;;;;22.92;50.01;100413.88;6302209;20;2736804;-55
2023/09/04 07:55:10;;;;;;;;;3.60;3.60;;;;;23.76;49.37;100404.31;6335381;20;2746266;-53
2023/09/04 07:57:40;;;;;;;;;5.00;5.00;;;;;24.18;48.79;100419.97;6302703;20;2748247;-53
2023/09/04 08:00:09;;;;;;;;;5.00;5.00;;;;;23.99;48.29;100421.09;6279037;20;2748321;-54
2023/09/04 08:02:38;;;;;;;;;4.60;4.00;;;;;24.08;49.29;100419.22;6336887;20;2739910;-51
2023/09/04 08:05:09;;;;;;;;;5.40;4.40;;;;;23.59;49.25;100418.91;6303492;20;2735730;-53
2023/09/04 08:07:39;;;;;;;;;6.00;4.60;;;;;24.10;49.06;100406.22;6335216;20;2737793;-51
2023/09/04 08:10:08;;;;;;;;;4.67;4.67;;;;;24.03;48.92;100399.66;6277115;20;2743006;-55
2023/09/04 08:12:38;;;;;;;;;4.60;4.60;;;;;23.28;49.97;100402.09;6335755;20;2729467;-51
2023/09/04 08:15:10;;;;;;;;;5.80;5.80;;;;;23.98;47.38;100402.03;6336613;20;2751336;-54
2023/09/04 08:17:41;;;;;;;;;4.60;4.60;;;;;24.08;47.29;100409.13;6304600;20;2736796;-54
2023/09/04 08:20:12;;;;;;;;;6.00;4.60;;;;;24.46;47.53;100408.78;6335909;20;2734722;-54
2023/09/04 08:22:41;;;;;;;;;6.00;6.00;;;;;24.00;47.57;100405.47;6303469;20;2736784;-53
2023/09/04 08:25:11;;;;;;;;;3.20;3.20;;;;;24.24;47.57;100401.97;6337963;20;2735880;-53
2023/09/04 08:27:40;;;;;;;;;6.00;5.00;;;;;24.27;47.36;100413.47;6335282;20;1851930;-51
2023/09/04 08:30:10;;;;;;;;;6.00;4.40;;;;;24.34;46.63;100410.09;6306260;20;2742037;-51
2023/09/04 08:32:40;;;;;;;;;2.00;2.00;;;;;24.63;46.65;100427.03;6334890;20;2734716;-52
2023/09/04 08:35:09;;;;;;;;;4.25;4.25;;;;;24.42;46.22;100416.47;6331324;20;2771161;-52
2023/09/04 08:37:39;;;;;;;;;6.40;5.20;;;;;24.31;45.23;100419.53;6336244;20;2728427;-52
2023/09/04 08:40:09;;;;;;;;;3.00;3.00;;;;;24.21;46.54;100422.38;6342973;20;2731559;-49
2023/09/04 08:42:41;;;;;;;;;5.00;3.80;;;;;24.51;44.94;100421.00;6341682;20;2744071;-53
2023/09/04 08:45:10;;;;;;;;;4.00;4.00;;;;;24.87;45.16;100422.63;6307533;20;2748225;-52
2023/09/04 08:47:41;;;;;;;;;4.00;4.00;;;;;25.20;43.88;100423.56;6307545;20;2737835;-51
2023/09/04 08:50:11;;;;;;;;;4.40;4.40;;;;;25.11;44.55;100428.13;6340268;20;2727413;-53
2023/09/04 08:52:41;;;;;;;;;3.80;3.80;;;;;25.46;44.67;100423.38;6339016;20;2738223;-51
2023/09/04 08:55:12;;;;;;;;;4.80;4.00;;;;;25.07;43.72;100428.66;6308424;20;2744203;-53
2023/09/04 08:57:42;;;;;;;;;1.80;1.80;;;;;24.93;43.44;100416.44;6305797;20;2750537;-49
2023/09/04 09:00:13;;;;;;;;;3.00;3.00;;;;;25.33;42.95;100436.75;6309713;20;2735773;-47
2023/09/04 09:02:44;;;;;;;;;3.80;3.00;;;;;24.60;43.97;100419.13;6340795;20;2756988;-52
2023/09/04 09:05:17;;;;;;;;;4.00;4.00;;;;;24.48;45.02;100420.47;6282430;20;2743032;-48
2023/09/04 09:07:47;;;;;;;;;3.40;3.40;;;;;24.89;44.31;100420.56;6339407;20;2745073;-50
2023/09/04 09:10:19;;;;;;;;;3.40;3.40;;;;;24.46;45.20;100428.00;6308210;20;2748227;-52
2023/09/04 09:12:49;;;;;;;;;3.67;3.67;;;;;24.96;43.12;100429.81;6288420;20;2747197;-54
2023/09/04 09:15:19;;;;;;;;;3.00;3.00;;;;;24.78;43.11;100423.63;6336608;20;2741957;-51
2023/09/04 09:17:55;;;;;;;;;6.00;5.00;;;;;24.66;43.52;100423.94;6338317;20;2727437;-55
2023/09/04 09:20:42;;;;;;;;;3.60;3.00;;;;;24.62;43.70;100433.56;6341430;20;2737786;-49
2023/09/04 09:23:15;;;;;;;;;2.80;2.80;;;;;24.84;42.48;100423.81;6309972;20;2729526;-53
2023/09/04 09:25:55;;;;;;;;;3.00;3.00;;;;;23.75;45.52;100412.69;6341566;20;2735695;-52
2023/09/04 09:28:24;;;;;;;;;5.00;5.00;;;;;23.30;46.27;100414.59;6338159;20;2734170;-48
2023/09/04 09:30:56;;;;;;;;;4.40;4.40;;;;;24.52;44.87;100416.38;6339153;20;2729419;-52
2023/09/04 09:33:28;;;;;;;;;2.00;2.00;;;;;24.22;45.35;100413.13;6335424;20;2746547;-52
2023/09/04 09:35:58;;;;;;;;;2.00;2.00;;;;;24.71;44.03;100418.81;6335143;20;2746115;-54
2023/09/04 09:38:28;;;;;;;;;2.20;2.20;;;;;24.93;42.87;100414.53;6309431;20;2744079;-53
2023/09/04 09:41:00;;;;;;;;;3.80;3.80;;;;;25.15;42.72;100418.56;6308359;20;2748222;-50
2023/09/04 09:43:29;;;;;;;;;4.00;4.00;;;;;25.12;42.23;100421.63;6310538;20;2754478;-53
2023/09/04 09:46:01;;;;;;;;;4.00;4.00;;;;;25.97;42.53;100418.47;6327866;20;2465918;-51
2023/09/04 09:48:31;;;;;;;;;0.00;0.00;;;;;25.86;41.34;100427.13;6339571;20;2727368;-50
2023/09/04 09:51:01;;;;;;;;;2.20;2.20;;;;;25.53;41.54;100409.78;6339291;20;2733672;-54
2023/09/04 09:54:05;;;;;;;;;5.40;4.00;;;;;25.91;41.13;100424.72;6333364;20;2748214;-54
2023/09/04 09:56:35;;;;;;;;;5.80;4.40;;;;;25.48;42.13;100410.28;6303363;20;2738849;-53
2023/09/04 09:59:04;;;;;;;;;3.67;3.67;;;;;25.88;39.33;100425.03;6279507;20;2744186;-56
2023/09/04 10:01:37;;;;;;;;;3.00;3.00;;;;;26.49;39.85;100426.19;6338045;20;2737917;-50
2023/09/04 10:04:07;;;;;;;;;3.20;3.00;;;;;25.53;40.77;100421.63;6305549;20;2753426;-49
2023/09/04 10:06:38;;;;;;;;;3.33;3.33;;;;;26.12;41.01;100414.97;6283174;20;2741974;-50
2023/09/04 10:09:10;;;;;;;;;4.67;3.00;;;;;25.23;41.87;100414.97;6309476;20;2745105;-52
2023/09/04 10:11:44;;;;;;;;;4.40;4.40;;;;;25.84;41.49;100410.78;6336357;20;2745123;-54
2023/09/04 10:14:28;;;;;;;;;4.00;3.00;;;;;25.61;41.43;100413.38;6304224;20;2745110;-51
2023/09/04 10:17:02;;;;;;;;;4.00;4.00;;;;;25.63;40.85;100411.31;6280939;20;2748215;-55
2023/09/04 10:19:36;;;;;;;;;4.00;4.00;;;;;25.65;41.47;100413.03;6335512;20;2742043;-50
2023/09/04 10:22:22;;;;;;;;;2.60;2.60;;;;;25.85;41.63;100419.88;6306324;20;2732590;-52
2023/09/04 10:25:59;;;;;;;;;6.00;3.60;;;;;25.62;41.05;100404.09;6335047;20;2744117;-49
2023/09/04 10:28:37;;;;;;;;;4.60;3.00;;;;;26.01;40.81;100403.34;6300925;20;2748251;-49
2023/09/04 10:31:14;;;;;;;;;1.50;1.50;;;;;26.12;40.55;100406.72;6310786;20;2727704;-50
2023/09/04 10:33:43;;;;;;;;;3.33;3.33;;;;;25.13;40.88;100408.75;6315466;20;2750365;-53
2023/09/04 10:36:13;;;;;;;;;3.60;3.00;;;;;25.68;40.97;100410.78;6332035;20;2754479;-51
2023/09/04 10:38:43;;;;;;;;;4.67;4.33;;;;;26.28;39.80;100414.94;6282207;20;2738870;-49
2023/09/04 10:41:15;;;;;;;;;3.60;3.60;;;;;26.23;40.53;100407.22;6334800;20;2741054;-52
2023/09/04 10:43:44;;;;;;;;;5.00;4.00;;;;;25.64;40.45;100401.16;6278533;20;2734749;-52
2023/09/04 10:46:15;;;;;;;;;3.40;3.40;;;;;25.33;41.03;100398.28;6340110;20;2750330;-52
2023/09/04 10:48:49;;;;;;;;;2.00;2.00;;;;;25.18;41.06;100392.63;6305836;20;2735775;-50
2023/09/04 10:51:34;;;;;;;;;3.00;3.00;;;;;25.74;40.76;100396.31;6344317;20;2737793;-51
2023/09/04 10:54:26;;;;;;;;;5.20;4.00;;;;;25.68;40.38;100405.28;6305719;20;2741006;-53
2023/09/04 10:57:06;;;;;;;;;4.00;4.00;;;;;24.67;43.13;100400.06;6279169;20;2737837;-50
2023/09/04 10:59:54;;;;;;;;;4.00;4.00;;;;;25.22;41.38;100391.22;6337084;20;2745080;-50
2023/09/04 11:02:33;;;;;;;;;4.80;3.80;;;;;25.30;42.25;100404.13;6307841;20;2743071;-47
2023/09/04 11:05:07;;;;;;;;;5.60;5.60;;;;;25.60;41.30;100411.66;6307904;20;2735835;-50
2023/09/04 11:07:36;;;;;;;;;2.60;2.00;;;;;25.83;41.48;100400.78;6336063;20;2744057;-53
2023/09/04 11:10:17;;;;;;;;;4.40;3.00;;;;;26.24;40.83;100402.56;6335903;20;2738944;-52
2023/09/04 11:12:47;;;;;;;;;4.60;3.20;;;;;25.91;42.62;100405.44;6338102;20;2737864;-51
2023/09/04 11:15:17;;;;;;;;;5.20;2.80;;;;;24.83;42.83;100404.75;6333609;20;2735812;-49
2023/09/04 11:17:51;;;;;;;;;9.00;4.67;;;;;25.39;42.10;100397.59;6315754;20;2740949;-49
2023/09/04 11:20:27;;;;;;;;;4.80;4.00;;;;;25.60;42.13;100388.81;6335937;20;2742099;-49